Arlington, Washington
Current Conditions -  °F | °C
As of 10:35 AM on Sunday 23 Nov 2014 (Local Time) from KAWO Reporting Station
Scattered Clouds Scattered Clouds  
Wind Chill: 52°   Ceiling: Unl
Heat Index: 52°   Visibility: 10mi
Dew Point: 45°   Wind: 3mph
Humidity: 76%   Direction: 180°S
Pressure: 30.11"   Gusts: NA
Location:  48.2°N, 122.13°W
Report Text: KAWO 231835Z AUTO 18003KT 10SM FEW075 SCT080 11/07 A3011 RMK AO1
Loading
Personal Weather Stations






























Interactive Weather Map New forecast layout! Learn more

10-Day Weather Forecast

Advertisements
Track Severe Weather on mobile